Time;durP1;ratioP1;P1;durP2;ratioP2;P2;SDS_P1;SDS_P2;PMS_P1;PMS_P2;Temp;Humidity;BMP_temperature;BMP_pressure;BME280_temperature;BME280_humidity;BME280_pressure;Samples;Min_cycle;Max_cycle;Signal;HPM_P1;HPM_P2
2022/11/08 00:01:43;;;;;;;;;;;16.40;72.80;;;;;;4941104;29;19957;-81
2022/11/08 00:04:13;;;;;;;;;;;16.40;73.40;;;;;;4926344;29;20339;-81
2022/11/08 00:14:52;;;;;;;;;;;16.30;72.70;;;;;;4949692;29;19914;-81
2022/11/08 00:17:18;;;;;;;;;;;16.30;72.70;;;;;;4950323;29;19914;-82
2022/11/08 00:19:44;;;;;;;;;;;16.30;72.70;;;;;;4952461;28;19958;-81
2022/11/08 00:22:10;;;;;;;;;;;16.30;72.70;;;;;;4952893;28;20000;-82
2022/11/08 00:24:36;;;;;;;;;;;16.30;72.70;;;;;;4933330;29;19919;-81
2022/11/08 00:27:02;;;;;;;;;;;16.30;72.70;;;;;;4951824;29;19993;-81
2022/11/08 00:29:28;;;;;;;;;;;16.30;72.70;;;;;;4934909;28;20001;-81
2022/11/08 00:31:54;;;;;;;;;;;16.30;72.70;;;;;;4936532;29;20447;-82
2022/11/08 00:34:19;;;;;;;;;;;16.30;72.70;;;;;;4952379;29;19918;-81
2022/11/08 00:36:45;;;;;;;;;;;16.30;72.70;;;;;;4947685;28;20613;-82
2022/11/08 00:39:11;;;;;;;;;;;16.30;72.70;;;;;;4950950;28;19922;-82
2022/11/08 00:41:36;;;;;;;;;;;16.30;72.70;;;;;;4949690;29;20315;-81
2022/11/08 00:44:02;;;;;;;;;;;16.30;72.70;;;;;;4946196;29;19922;-82
2022/11/08 00:46:28;;;;;;;;;;;16.20;72.60;;;;;;4948388;28;19919;-82
2022/11/08 00:48:53;;;;;;;;;;;16.20;72.70;;;;;;4949842;28;20037;-82
2022/11/08 00:51:19;;;;;;;;;;;16.20;72.70;;;;;;4951738;29;19918;-81
2022/11/08 00:53:44;;;;;;;;;;;16.20;72.70;;;;;;4950732;29;20009;-81
2022/11/08 00:56:11;;;;;;;;;;;16.20;72.70;;;;;;4934960;29;19954;-82
2022/11/08 00:58:36;;;;;;;;;;;16.20;72.70;;;;;;4951887;28;19929;-82
2022/11/08 01:01:09;;;;;;;;;;;16.20;72.70;;;;;;4949157;29;19926;-81
2022/11/08 01:03:35;;;;;;;;;;;16.20;72.80;;;;;;4946471;29;20339;-81
2022/11/08 01:06:03;;;;;;;;;;;16.10;72.70;;;;;;4953687;28;19946;-81
2022/11/08 01:08:28;;;;;;;;;;;16.10;72.70;;;;;;4952302;29;20287;-81
2022/11/08 01:10:54;;;;;;;;;;;16.10;72.70;;;;;;4952363;28;19922;-81
2022/11/08 01:13:19;;;;;;;;;;;16.10;72.70;;;;;;4919914;29;19923;-81
2022/11/08 01:15:45;;;;;;;;;;;16.10;72.70;;;;;;4916067;29;19919;-81
2022/11/08 01:18:12;;;;;;;;;;;16.10;72.70;;;;;;4952085;28;19919;-82
2022/11/08 01:20:42;;;;;;;;;;;16.10;72.80;;;;;;4968638;28;19980;-82
2022/11/08 01:23:08;;;;;;;;;;;16.10;72.80;;;;;;4947572;28;19914;-82
2022/11/08 01:25:34;;;;;;;;;;;16.10;72.80;;;;;;4930447;29;19993;-82
2022/11/08 01:28:00;;;;;;;;;;;16.00;72.70;;;;;;4967941;28;19926;-81
2022/11/08 01:30:26;;;;;;;;;;;16.00;72.70;;;;;;4940096;29;19914;-82
2022/11/08 01:32:51;;;;;;;;;;;16.00;72.70;;;;;;4932492;29;19977;-82
2022/11/08 01:35:17;;;;;;;;;;;16.00;72.70;;;;;;4968176;28;20279;-82
2022/11/08 01:37:42;;;;;;;;;;;16.00;72.70;;;;;;4935017;29;19931;-81
2022/11/08 01:40:08;;;;;;;;;;;16.00;72.70;;;;;;4932420;29;19929;-82
2022/11/08 01:42:34;;;;;;;;;;;16.00;72.80;;;;;;4947307;29;19918;-82
2022/11/08 01:45:01;;;;;;;;;;;15.90;72.70;;;;;;4947024;28;19927;-82
2022/11/08 01:47:26;;;;;;;;;;;15.90;72.70;;;;;;4956123;28;19914;-81
2022/11/08 01:49:55;;;;;;;;;;;15.90;72.70;;;;;;4956248;28;20409;-82
2022/11/08 01:52:38;;;;;;;;;;;15.90;72.70;;;;;;4954495;29;19915;-81
2022/11/08 01:55:04;;;;;;;;;;;15.90;72.70;;;;;;4950867;29;19925;-81
2022/11/08 01:57:48;;;;;;;;;;;15.90;72.70;;;;;;4956056;28;19914;-82
2022/11/08 02:00:14;;;;;;;;;;;15.90;72.70;;;;;;4943493;28;19925;-81
2022/11/08 02:02:41;;;;;;;;;;;15.90;72.80;;;;;;4956125;29;19937;-81
2022/11/08 02:05:23;;;;;;;;;;;15.80;72.70;;;;;;4954068;28;20330;-81
2022/11/08 02:08:00;;;;;;;;;;;15.80;72.70;;;;;;4949525;29;20434;-81
2022/11/08 02:10:30;;;;;;;;;;;15.80;72.70;;;;;;4948374;29;19969;-82
2022/11/08 02:12:56;;;;;;;;;;;15.80;72.70;;;;;;4948838;28;20359;-81
2022/11/08 02:15:23;;;;;;;;;;;15.80;72.70;;;;;;4952032;29;19934;-81
2022/11/08 02:17:49;;;;;;;;;;;15.80;72.70;;;;;;4951493;28;19918;-82
2022/11/08 02:20:15;;;;;;;;;;;15.80;72.70;;;;;;4937540;29;19923;-83
2022/11/08 02:22:45;;;;;;;;;;;15.70;72.70;;;;;;4950507;29;20016;-83
2022/11/08 02:25:11;;;;;;;;;;;15.70;72.70;;;;;;4953035;29;20005;-81
2022/11/08 02:27:37;;;;;;;;;;;15.70;72.70;;;;;;4948166;29;20565;-82
2022/11/08 02:30:03;;;;;;;;;;;15.70;72.70;;;;;;4954848;29;19990;-81
2022/11/08 02:32:35;;;;;;;;;;;15.70;72.70;;;;;;4936398;29;19953;-81
2022/11/08 02:35:01;;;;;;;;;;;15.70;72.70;;;;;;4947209;29;20287;-81
2022/11/08 02:37:27;;;;;;;;;;;15.70;72.70;;;;;;4938758;29;19918;-81
2022/11/08 02:39:52;;;;;;;;;;;15.60;72.60;;;;;;4954505;29;19926;-82
2022/11/08 02:42:19;;;;;;;;;;;15.70;72.70;;;;;;4952446;29;19921;-82
2022/11/08 02:44:45;;;;;;;;;;;15.60;72.70;;;;;;4954330;29;20009;-81
2022/11/08 02:47:11;;;;;;;;;;;15.60;72.70;;;;;;4953687;29;19918;-81
2022/11/08 02:49:36;;;;;;;;;;;15.60;72.70;;;;;;4954524;28;19999;-82
2022/11/08 02:52:02;;;;;;;;;;;15.60;72.70;;;;;;4951686;28;19925;-81
2022/11/08 02:54:28;;;;;;;;;;;15.60;72.70;;;;;;4937568;29;20579;-82
2022/11/08 02:56:54;;;;;;;;;;;15.60;72.70;;;;;;4953223;29;20046;-80
2022/11/08 02:59:19;;;;;;;;;;;15.50;72.70;;;;;;4951584;29;20005;-81
2022/11/08 03:01:45;;;;;;;;;;;15.60;72.70;;;;;;4952989;28;19919;-83
2022/11/08 03:04:10;;;;;;;;;;;15.50;72.60;;;;;;4952662;28;19921;-81
2022/11/08 03:06:36;;;;;;;;;;;15.50;72.70;;;;;;4937824;29;19919;-81
2022/11/08 03:09:02;;;;;;;;;;;15.50;72.70;;;;;;4950887;29;19945;-81
2022/11/08 03:11:28;;;;;;;;;;;15.50;72.70;;;;;;4935613;29;19923;-81
2022/11/08 03:13:53;;;;;;;;;;;15.50;72.70;;;;;;4954674;28;19969;-81
2022/11/08 03:16:19;;;;;;;;;;;15.50;72.70;;;;;;4937733;28;19985;-82
2022/11/08 03:18:45;;;;;;;;;;;15.40;72.60;;;;;;4920240;29;20005;-82
2022/11/08 03:21:10;;;;;;;;;;;15.40;72.70;;;;;;4951120;28;20018;-82
2022/11/08 03:23:36;;;;;;;;;;;15.40;72.70;;;;;;4935997;29;19924;-81
2022/11/08 03:26:02;;;;;;;;;;;15.40;72.70;;;;;;4921148;29;19923;-81
2022/11/08 03:28:28;;;;;;;;;;;15.40;72.70;;;;;;4933361;29;19970;-81
2022/11/08 03:30:53;;;;;;;;;;;15.40;72.70;;;;;;4953077;28;19915;-81
2022/11/08 03:33:19;;;;;;;;;;;15.40;72.70;;;;;;4950528;28;19922;-81
2022/11/08 03:35:46;;;;;;;;;;;15.30;72.70;;;;;;4949392;28;19919;-81
2022/11/08 03:38:11;;;;;;;;;;;15.30;72.70;;;;;;4952158;29;19980;-82
2022/11/08 03:40:37;;;;;;;;;;;15.30;72.70;;;;;;4949370;29;19966;-82
2022/11/08 03:43:03;;;;;;;;;;;15.30;72.70;;;;;;4946908;29;19969;-81
2022/11/08 03:45:28;;;;;;;;;;;15.30;72.70;;;;;;4952775;29;20450;-81
2022/11/08 03:47:54;;;;;;;;;;;15.30;72.70;;;;;;4935866;29;19919;-81
2022/11/08 03:50:19;;;;;;;;;;;15.30;72.70;;;;;;4952097;28;19977;-82
2022/11/08 03:52:52;;;;;;;;;;;15.30;72.70;;;;;;4950354;29;19918;-81
2022/11/08 03:55:19;;;;;;;;;;;15.20;72.70;;;;;;4947470;29;19954;-82
2022/11/08 03:57:45;;;;;;;;;;;15.20;72.70;;;;;;4951527;28;19915;-82
2022/11/08 04:00:12;;;;;;;;;;;15.20;72.70;;;;;;4952267;28;19965;-81
2022/11/08 04:02:38;;;;;;;;;;;15.20;72.70;;;;;;4959059;28;19914;-81
2022/11/08 04:05:04;;;;;;;;;;;15.20;73.40;;;;;;4931859;29;19919;-81
2022/11/08 04:07:29;;;;;;;;;;;15.20;72.70;;;;;;4947383;28;19970;-82
2022/11/08 04:09:55;;;;;;;;;;;15.20;72.70;;;;;;4951504;28;20041;-81
2022/11/08 04:15:15;;;;;;;;;;;15.20;72.70;;;;;;4939100;29;19922;-81
2022/11/08 04:23:30;;;;;;;;;;;15.10;72.80;;;;;;4952617;29;19915;-81
2022/11/08 04:25:57;;;;;;;;;;;15.10;72.80;;;;;;4949526;29;19919;-83
2022/11/08 04:28:24;;;;;;;;;;;15.10;72.90;;;;;;4950916;29;19919;-81
2022/11/08 04:30:53;;;;;;;;;;;15.10;72.90;;;;;;4948559;29;20384;-81
2022/11/08 04:33:19;;;;;;;;;;;15.00;72.80;;;;;;4951141;28;19919;-82
2022/11/08 04:35:44;;;;;;;;;;;15.00;72.80;;;;;;4949715;29;19942;-81
2022/11/08 04:38:10;;;;;;;;;;;15.00;72.90;;;;;;4948510;29;19960;-81
2022/11/08 04:40:35;;;;;;;;;;;15.00;72.90;;;;;;4948766;28;19922;-81
2022/11/08 04:43:01;;;;;;;;;;;15.00;72.90;;;;;;4948341;29;19919;-81
2022/11/08 04:45:27;;;;;;;;;;;15.00;72.90;;;;;;4950486;28;19925;-80
2022/11/08 04:47:52;;;;;;;;;;;15.00;72.90;;;;;;4932237;29;19958;-81
2022/11/08 04:50:18;;;;;;;;;;;15.00;72.90;;;;;;4917774;29;19958;-82
2022/11/08 04:52:49;;;;;;;;;;;14.90;72.90;;;;;;4948651;29;19940;-82
2022/11/08 04:55:15;;;;;;;;;;;14.90;72.90;;;;;;4952277;29;19921;-81
2022/11/08 04:57:41;;;;;;;;;;;14.90;72.90;;;;;;4950825;28;19918;-81
2022/11/08 05:00:06;;;;;;;;;;;14.90;72.90;;;;;;4948738;29;19923;-81
2022/11/08 05:02:32;;;;;;;;;;;14.90;72.90;;;;;;4951981;29;19949;-81
2022/11/08 05:04:58;;;;;;;;;;;14.90;72.90;;;;;;4932403;29;19927;-81
2022/11/08 05:07:23;;;;;;;;;;;14.90;72.90;;;;;;4932803;29;19918;-80
2022/11/08 05:09:49;;;;;;;;;;;14.90;73.00;;;;;;4952716;29;19925;-82
2022/11/08 05:12:15;;;;;;;;;;;14.80;72.90;;;;;;4952099;28;19933;-82
2022/11/08 05:14:40;;;;;;;;;;;14.80;72.90;;;;;;4951914;29;19930;-81
2022/11/08 05:17:06;;;;;;;;;;;14.80;72.90;;;;;;4951685;28;19919;-81
2022/11/08 05:25:00;;;;;;;;;;;14.80;73.00;;;;;;4937985;29;19923;-81
2022/11/08 05:27:27;;;;;;;;;;;14.80;73.00;;;;;;4951738;29;20442;-81
2022/11/08 05:29:53;;;;;;;;;;;14.80;73.00;;;;;;4950395;28;19946;-81
2022/11/08 05:32:18;;;;;;;;;;;14.70;72.90;;;;;;4946561;28;19919;-82
2022/11/08 05:34:44;;;;;;;;;;;14.70;72.90;;;;;;4932187;29;20354;-81
2022/11/08 05:37:10;;;;;;;;;;;14.70;72.90;;;;;;4930825;29;19922;-80
2022/11/08 05:39:35;;;;;;;;;;;14.70;72.90;;;;;;4948420;29;19926;-79
2022/11/08 05:42:03;;;;;;;;;;;14.70;72.90;;;;;;4935315;29;20027;-81
2022/11/08 05:44:28;;;;;;;;;;;14.70;73.00;;;;;;4950669;28;19915;-81
2022/11/08 05:46:54;;;;;;;;;;;14.70;73.00;;;;;;4951851;29;19918;-79
2022/11/08 05:49:20;;;;;;;;;;;14.70;73.00;;;;;;4950336;29;19926;-80
2022/11/08 05:51:45;;;;;;;;;;;14.70;73.00;;;;;;4933018;29;19918;-80
2022/11/08 05:54:12;;;;;;;;;;;14.70;73.00;;;;;;4945690;28;19918;-80
2022/11/08 05:56:38;;;;;;;;;;;14.70;73.00;;;;;;4951644;29;19927;-81
2022/11/08 05:59:04;;;;;;;;;;;14.60;72.90;;;;;;4951951;29;19919;-80
2022/11/08 06:01:30;;;;;;;;;;;14.60;73.00;;;;;;4951498;29;20334;-80
2022/11/08 06:03:56;;;;;;;;;;;14.60;72.90;;;;;;4947338;28;20375;-80
2022/11/08 06:06:22;;;;;;;;;;;14.60;73.00;;;;;;4935589;29;20135;-80
2022/11/08 06:08:48;;;;;;;;;;;14.60;73.00;;;;;;4934398;29;20390;-81
2022/11/08 06:11:16;;;;;;;;;;;14.60;73.00;;;;;;4951135;28;19985;-80
2022/11/08 06:13:41;;;;;;;;;;;14.60;73.00;;;;;;4950795;28;19918;-79
2022/11/08 06:16:08;;;;;;;;;;;14.60;73.00;;;;;;4949755;28;19965;-82
2022/11/08 06:18:34;;;;;;;;;;;14.50;73.00;;;;;;4954537;28;20260;-82
2022/11/08 06:21:01;;;;;;;;;;;14.60;73.00;;;;;;4951106;28;19926;-81
2022/11/08 06:23:27;;;;;;;;;;;14.50;73.10;;;;;;4947298;29;19921;-80
2022/11/08 06:25:53;;;;;;;;;;;14.50;73.60;;;;;;4949553;28;20296;-81
2022/11/08 06:28:19;;;;;;;;;;;14.50;73.00;;;;;;4950768;28;19915;-82
2022/11/08 06:30:45;;;;;;;;;;;14.50;73.00;;;;;;4952270;28;19915;-80
2022/11/08 06:33:10;;;;;;;;;;;14.50;73.00;;;;;;4951614;28;19918;-79
2022/11/08 06:35:37;;;;;;;;;;;14.40;73.00;;;;;;4948413;28;19926;-83
2022/11/08 06:38:02;;;;;;;;;;;14.50;73.10;;;;;;4943630;29;19944;-82
2022/11/08 06:40:31;;;;;;;;;;;14.40;73.10;;;;;;4939893;29;20265;-81
2022/11/08 06:42:57;;;;;;;;;;;14.40;73.10;;;;;;4950454;28;19938;-81
2022/11/08 06:45:27;;;;;;;;;;;14.40;73.10;;;;;;4936263;29;20411;-81
2022/11/08 06:47:57;;;;;;;;;;;14.40;73.10;;;;;;4954188;29;19966;-82
2022/11/08 06:50:26;;;;;;;;;;;14.40;73.10;;;;;;4953188;28;20504;-81
2022/11/08 06:52:55;;;;;;;;;;;14.40;73.10;;;;;;4944078;29;19957;-81
2022/11/08 06:55:21;;;;;;;;;;;14.40;73.10;;;;;;4954279;28;20375;-81
2022/11/08 06:57:47;;;;;;;;;;;14.40;73.10;;;;;;4956191;28;19918;-81
2022/11/08 07:00:14;;;;;;;;;;;14.30;73.10;;;;;;4954629;28;19950;-81
2022/11/08 07:02:39;;;;;;;;;;;14.40;73.10;;;;;;4939756;28;19918;-83
2022/11/08 07:05:09;;;;;;;;;;;14.30;73.10;;;;;;4954853;29;19914;-82
2022/11/08 07:07:38;;;;;;;;;;;14.30;73.10;;;;;;4940091;29;20005;-81
2022/11/08 07:10:07;;;;;;;;;;;14.30;73.10;;;;;;4955375;28;19930;-81
2022/11/08 07:12:33;;;;;;;;;;;14.30;73.20;;;;;;4951313;29;19974;-83
2022/11/08 07:14:58;;;;;;;;;;;14.30;73.10;;;;;;4953577;29;19914;-84
2022/11/08 07:17:24;;;;;;;;;;;14.30;73.10;;;;;;4957086;29;19921;-81
2022/11/08 07:19:53;;;;;;;;;;;14.30;73.20;;;;;;4940374;29;19961;-83
2022/11/08 07:22:18;;;;;;;;;;;14.30;73.20;;;;;;4955176;28;20599;-82
2022/11/08 07:24:44;;;;;;;;;;;14.30;73.20;;;;;;4947270;28;19915;-82
2022/11/08 07:27:10;;;;;;;;;;;14.30;73.20;;;;;;4937502;28;20260;-82
2022/11/08 07:29:35;;;;;;;;;;;14.30;73.20;;;;;;4955907;28;19914;-82
2022/11/08 07:32:01;;;;;;;;;;;14.30;73.20;;;;;;4928664;29;20001;-81
2022/11/08 07:34:26;;;;;;;;;;;14.30;73.20;;;;;;4949344;29;19973;-81
2022/11/08 07:36:52;;;;;;;;;;;14.20;73.10;;;;;;4955380;29;19922;-82
2022/11/08 07:39:23;;;;;;;;;;;14.30;73.20;;;;;;4921862;29;20001;-80
2022/11/08 07:41:58;;;;;;;;;;;14.30;73.20;;;;;;4953723;29;19931;-84
2022/11/08 07:44:27;;;;;;;;;;;14.20;73.20;;;;;;4954876;29;19914;-81
2022/11/08 07:46:56;;;;;;;;;;;14.30;73.20;;;;;;4951483;28;19919;-82
2022/11/08 07:49:21;;;;;;;;;;;14.20;73.20;;;;;;4952972;28;19969;-84
2022/11/08 07:51:47;;;;;;;;;;;14.20;73.20;;;;;;4950631;28;19914;-84
2022/11/08 07:54:13;;;;;;;;;;;14.20;73.20;;;;;;4950079;29;19918;-85
2022/11/08 07:56:45;;;;;;;;;;;14.20;73.20;;;;;;4946694;28;20280;-83
2022/11/08 07:59:11;;;;;;;;;;;14.20;73.20;;;;;;4956302;28;19973;-83
2022/11/08 08:01:36;;;;;;;;;;;14.20;73.20;;;;;;4955945;28;20360;-83
2022/11/08 08:04:02;;;;;;;;;;;14.20;73.20;;;;;;4931506;29;19918;-82
2022/11/08 08:06:31;;;;;;;;;;;14.20;73.20;;;;;;4954526;29;20434;-82
2022/11/08 08:08:56;;;;;;;;;;;14.20;73.20;;;;;;4937480;29;20418;-83
2022/11/08 08:11:22;;;;;;;;;;;14.20;73.20;;;;;;4945510;29;19918;-82
2022/11/08 08:13:48;;;;;;;;;;;14.20;73.20;;;;;;4945288;28;19918;-84
2022/11/08 08:16:24;;;;;;;;;;;;;;;;;;;;;
2022/11/08 08:18:49;;;;;;;;;;;14.20;73.20;;;;;;4953095;28;19918;-84
2022/11/08 08:21:15;;;;;;;;;;;14.20;73.20;;;;;;4939129;29;19966;-85
2022/11/08 08:23:41;;;;;;;;;;;14.20;73.30;;;;;;4947615;29;19966;-84
2022/11/08 08:26:06;;;;;;;;;;;14.20;73.30;;;;;;4953530;29;19921;-83
2022/11/08 08:28:32;;;;;;;;;;;14.20;73.30;;;;;;4951832;28;19925;-82
2022/11/08 08:30:58;;;;;;;;;;;14.20;73.30;;;;;;4958639;28;19926;-82
2022/11/08 08:33:30;;;;;;;;;;;14.20;73.30;;;;;;4952929;29;20359;-84
2022/11/08 08:35:56;;;;;;;;;;;14.20;73.40;;;;;;4952955;29;19918;-84
2022/11/08 08:38:21;;;;;;;;;;;14.20;73.30;;;;;;4953765;28;20005;-84
2022/11/08 08:40:47;;;;;;;;;;;14.20;73.30;;;;;;4955439;29;20376;-85
2022/11/08 08:43:12;;;;;;;;;;;14.20;73.30;;;;;;4939090;29;19922;-85
2022/11/08 08:45:39;;;;;;;;;;;14.20;73.30;;;;;;4953177;28;19914;-86
2022/11/08 08:48:07;;;;;;;;;;;14.30;73.40;;;;;;4933900;28;19919;-86
2022/11/08 08:50:33;;;;;;;;;;;14.30;73.40;;;;;;4951395;28;19934;-85
2022/11/08 08:53:00;;;;;;;;;;;14.30;73.40;;;;;;4953512;28;19918;-84
2022/11/08 08:55:26;;;;;;;;;;;14.30;73.40;;;;;;4952133;28;19924;-86
2022/11/08 08:57:58;;;;;;;;;;;14.30;73.40;;;;;;4946022;28;19949;-85
2022/11/08 09:00:23;;;;;;;;;;;14.30;73.40;;;;;;4954958;28;19922;-85
2022/11/08 09:02:49;;;;;;;;;;;14.30;73.40;;;;;;4950697;28;19915;-84
2022/11/08 09:05:15;;;;;;;;;;;14.30;73.40;;;;;;4949935;29;20009;-84
2022/11/08 09:07:44;;;;;;;;;;;14.30;73.40;;;;;;4942851;28;19977;-84
2022/11/08 09:10:10;;;;;;;;;;;14.30;73.40;;;;;;4950370;29;19997;-85
2022/11/08 09:12:36;;;;;;;;;;;14.30;73.40;;;;;;4950817;28;20433;-87
2022/11/08 09:15:02;;;;;;;;;;;14.40;73.40;;;;;;4952154;28;19995;-84
2022/11/08 09:17:28;;;;;;;;;;;14.40;73.40;;;;;;4952058;28;19914;-86
2022/11/08 09:19:56;;;;;;;;;;;14.40;73.40;;;;;;4937881;29;19948;-85
2022/11/08 09:22:25;;;;;;;;;;;14.40;73.40;;;;;;4952545;28;19929;-83
2022/11/08 09:24:50;;;;;;;;;;;14.40;73.40;;;;;;4937138;28;20167;-85
2022/11/08 09:27:16;;;;;;;;;;;14.40;73.40;;;;;;4937132;28;20360;-86
2022/11/08 09:29:42;;;;;;;;;;;14.50;73.40;;;;;;4952759;28;19922;-86
2022/11/08 09:32:08;;;;;;;;;;;14.50;73.40;;;;;;4951830;29;19927;-86
2022/11/08 09:34:33;;;;;;;;;;;14.50;73.40;;;;;;4952715;28;20382;-85
2022/11/08 09:36:59;;;;;;;;;;;14.50;73.30;;;;;;4952491;28;19919;-82
2022/11/08 09:39:25;;;;;;;;;;;14.50;73.40;;;;;;4948650;28;20438;-83
2022/11/08 09:41:50;;;;;;;;;;;14.50;73.40;;;;;;4948783;29;20392;-82
2022/11/08 09:44:39;;;;;;;;;;;14.60;73.40;;;;;;4951432;29;20001;-83
2022/11/08 09:47:28;;;;;;;;;;;14.60;73.40;;;;;;4945231;29;20360;-80
2022/11/08 09:50:13;;;;;;;;;;;14.60;73.40;;;;;;4935303;29;19977;-81
2022/11/08 09:52:40;;;;;;;;;;;14.60;73.40;;;;;;4952493;29;19921;-82
2022/11/08 09:55:09;;;;;;;;;;;14.60;73.40;;;;;;4936499;28;19967;-81
2022/11/08 09:57:42;;;;;;;;;;;14.70;73.50;;;;;;4952496;29;19914;-80
2022/11/08 10:00:10;;;;;;;;;;;14.70;73.50;;;;;;4948826;29;19937;-81
2022/11/08 10:02:38;;;;;;;;;;;14.70;73.50;;;;;;4952236;28;19914;-81
2022/11/08 10:05:07;;;;;;;;;;;14.70;73.50;;;;;;4955876;28;19915;-81
2022/11/08 10:07:44;;;;;;;;;;;14.70;73.50;;;;;;4956058;29;20017;-81
2022/11/08 10:10:13;;;;;;;;;;;14.80;73.50;;;;;;4955888;29;19942;-81
2022/11/08 10:12:58;;;;;;;;;;;14.80;73.50;;;;;;4940450;29;19942;-81
2022/11/08 10:15:43;;;;;;;;;;;14.80;73.50;;;;;;4955211;28;19919;-81
2022/11/08 10:18:17;;;;;;;;;;;14.80;73.50;;;;;;4954250;29;20416;-82
2022/11/08 10:21:06;;;;;;;;;;;14.90;73.50;;;;;;4956252;28;19929;-81
2022/11/08 10:23:40;;;;;;;;;;;14.90;73.50;;;;;;4934302;29;19962;-82
2022/11/08 10:26:11;;;;;;;;;;;14.90;73.50;;;;;;4948288;28;19915;-82
2022/11/08 10:28:40;;;;;;;;;;;14.90;73.50;;;;;;4953381;28;19914;-81
2022/11/08 10:31:08;;;;;;;;;;;14.90;73.50;;;;;;4956630;29;19914;-81
2022/11/08 10:33:48;;;;;;;;;;;14.90;73.40;;;;;;4953479;28;19962;-83
2022/11/08 10:36:23;;;;;;;;;;;15.00;73.50;;;;;;4955983;29;20371;-81
2022/11/08 10:39:03;;;;;;;;;;;15.00;73.50;;;;;;4955176;29;20005;-83
2022/11/08 10:41:57;;;;;;;;;;;15.00;73.50;;;;;;4950540;28;19919;-84
2022/11/08 10:44:24;;;;;;;;;;;15.10;73.50;;;;;;4955208;28;20001;-84
2022/11/08 10:46:55;;;;;;;;;;;15.10;73.50;;;;;;4953703;29;20872;-80
2022/11/08 10:49:24;;;;;;;;;;;15.10;73.50;;;;;;4954853;28;20615;-81
2022/11/08 10:51:57;;;;;;;;;;;15.10;73.40;;;;;;4955413;28;19921;-81
2022/11/08 10:54:40;;;;;;;;;;;15.20;73.50;;;;;;4953788;29;19954;-81
2022/11/08 10:57:16;;;;;;;;;;;15.20;73.50;;;;;;4953752;28;19915;-82
2022/11/08 10:59:45;;;;;;;;;;;15.20;73.40;;;;;;4953512;28;19914;-83
2022/11/08 11:02:27;;;;;;;;;;;15.20;73.40;;;;;;4952252;29;19981;-83
2022/11/08 11:05:17;;;;;;;;;;;15.20;73.40;;;;;;4953188;28;19915;-82
2022/11/08 11:07:56;;;;;;;;;;;15.30;73.40;;;;;;4949017;28;20293;-82
2022/11/08 11:10:24;;;;;;;;;;;15.30;73.40;;;;;;4952354;29;19915;-82
2022/11/08 11:12:58;;;;;;;;;;;15.30;73.40;;;;;;4955919;29;19914;-79
2022/11/08 11:15:29;;;;;;;;;;;15.40;73.40;;;;;;4934946;29;19915;-81
2022/11/08 11:17:55;;;;;;;;;;;15.40;73.40;;;;;;4933547;29;19923;-81
2022/11/08 11:20:22;;;;;;;;;;;15.40;73.40;;;;;;4953091;29;19926;-81
2022/11/08 11:22:52;;;;;;;;;;;15.40;73.30;;;;;;4954324;29;19915;-82
2022/11/08 11:25:19;;;;;;;;;;;15.50;73.40;;;;;;4953154;28;20565;-82
2022/11/08 11:27:52;;;;;;;;;;;15.50;73.40;;;;;;4939140;29;19915;-81
2022/11/08 11:30:28;;;;;;;;;;;15.50;73.40;;;;;;4954916;28;19961;-82
2022/11/08 11:33:13;;;;;;;;;;;15.50;73.30;;;;;;4955411;28;19919;-82
2022/11/08 11:35:41;;;;;;;;;;;15.60;73.40;;;;;;4965259;28;20371;-81
2022/11/08 11:38:12;;;;;;;;;;;15.60;73.30;;;;;;4951054;28;19925;-80
2022/11/08 11:40:43;;;;;;;;;;;15.60;73.40;;;;;;4953755;28;19962;-81
2022/11/08 11:43:25;;;;;;;;;;;15.60;73.30;;;;;;4951759;28;19914;-80
2022/11/08 11:46:09;;;;;;;;;;;15.60;73.30;;;;;;4948260;28;19938;-80
2022/11/08 11:48:38;;;;;;;;;;;15.70;73.40;;;;;;4938247;29;20299;-80
2022/11/08 11:51:04;;;;;;;;;;;15.70;73.30;;;;;;4955285;28;20318;-80
2022/11/08 11:53:37;;;;;;;;;;;15.70;73.30;;;;;;4954726;29;19919;-80
2022/11/08 11:56:12;;;;;;;;;;;15.70;73.30;;;;;;4952475;28;19970;-80
2022/11/08 11:58:47;;;;;;;;;;;15.80;73.30;;;;;;4936510;29;19945;-80
2022/11/08 12:01:16;;;;;;;;;;;15.80;73.30;;;;;;4950569;28;19926;-80
2022/11/08 12:04:01;;;;;;;;;;;15.80;73.30;;;;;;4943635;29;19915;-79
2022/11/08 12:06:36;;;;;;;;;;;15.80;73.30;;;;;;4952063;28;19937;-81
2022/11/08 12:09:05;;;;;;;;;;;15.80;73.30;;;;;;4953051;28;19915;-81
2022/11/08 12:11:34;;;;;;;;;;;15.90;73.30;;;;;;4953621;28;19965;-81
2022/11/08 12:14:23;;;;;;;;;;;15.90;73.30;;;;;;4953566;29;20399;-81
2022/11/08 12:17:13;;;;;;;;;;;15.90;73.30;;;;;;4951977;29;20010;-81
2022/11/08 12:19:42;;;;;;;;;;;15.90;73.20;;;;;;4953778;28;20375;-81
2022/11/08 12:22:07;;;;;;;;;;;16.00;73.30;;;;;;4951233;28;19919;-82
2022/11/08 12:24:39;;;;;;;;;;;16.00;73.20;;;;;;4951042;28;19918;-82
2022/11/08 12:27:14;;;;;;;;;;;16.00;73.20;;;;;;4947602;28;19918;-80
2022/11/08 12:29:42;;;;;;;;;;;16.10;73.30;;;;;;4953925;28;20847;-82
2022/11/08 12:32:08;;;;;;;;;;;16.10;73.30;;;;;;4935282;29;20359;-82
2022/11/08 12:34:52;;;;;;;;;;;16.10;73.20;;;;;;4953303;28;19929;-83
2022/11/08 12:37:25;;;;;;;;;;;16.10;73.20;;;;;;4950519;29;19977;-83
2022/11/08 12:39:58;;;;;;;;;;;16.10;73.20;;;;;;4934986;29;19919;-82
2022/11/08 12:42:40;;;;;;;;;;;16.20;73.20;;;;;;4948762;29;19970;-82
2022/11/08 12:45:06;;;;;;;;;;;16.20;73.20;;;;;;4947935;29;19915;-83
2022/11/08 12:47:38;;;;;;;;;;;16.20;73.20;;;;;;4952788;28;20327;-83
2022/11/08 12:50:25;;;;;;;;;;;16.20;73.20;;;;;;4953847;29;19981;-84
2022/11/08 12:53:03;;;;;;;;;;;16.30;73.10;;;;;;4953182;28;20342;-82
2022/11/08 12:55:32;;;;;;;;;;;16.30;73.10;;;;;;4953429;29;19930;-83
2022/11/08 12:57:59;;;;;;;;;;;16.30;73.10;;;;;;4946921;29;20368;-82
2022/11/08 13:00:28;;;;;;;;;;;16.30;73.10;;;;;;4953912;28;19926;-82
2022/11/08 13:03:14;;;;;;;;;;;16.40;73.10;;;;;;4953494;28;19914;-82
2022/11/08 13:05:44;;;;;;;;;;;16.40;73.10;;;;;;4953883;28;19915;-82
2022/11/08 13:08:16;;;;;;;;;;;16.40;73.00;;;;;;4953925;29;19928;-83
2022/11/08 13:10:48;;;;;;;;;;;16.40;73.10;;;;;;4935679;29;19965;-81
2022/11/08 13:13:14;;;;;;;;;;;16.50;73.10;;;;;;4953671;29;19922;-83
2022/11/08 13:15:58;;;;;;;;;;;16.50;73.00;;;;;;4953798;29;19914;-81
2022/11/08 13:18:31;;;;;;;;;;;16.50;73.00;;;;;;4945895;29;19948;-82
2022/11/08 13:20:57;;;;;;;;;;;16.50;73.00;;;;;;4954092;28;19925;-83
2022/11/08 13:23:25;;;;;;;;;;;16.50;72.90;;;;;;4968611;28;19919;-83
2022/11/08 13:25:52;;;;;;;;;;;16.60;73.00;;;;;;4953381;29;20005;-82
2022/11/08 13:28:35;;;;;;;;;;;16.60;73.00;;;;;;4937640;29;20359;-82
2022/11/08 13:31:06;;;;;;;;;;;16.60;72.90;;;;;;4952653;29;19914;-82
2022/11/08 13:33:32;;;;;;;;;;;16.60;72.90;;;;;;4951435;28;19911;-82
2022/11/08 13:36:01;;;;;;;;;;;16.60;72.90;;;;;;4966504;28;20005;-82
2022/11/08 13:38:30;;;;;;;;;;;16.70;73.00;;;;;;4955893;28;20000;-82
2022/11/08 13:41:14;;;;;;;;;;;16.60;72.90;;;;;;4956684;28;19974;-83
2022/11/08 13:43:40;;;;;;;;;;;16.70;72.90;;;;;;4958094;28;19915;-81
2022/11/08 13:46:28;;;;;;;;;;;16.70;72.90;;;;;;4941768;29;20408;-83
2022/11/08 13:49:01;;;;;;;;;;;16.70;72.90;;;;;;4947471;29;19966;-81
2022/11/08 13:51:27;;;;;;;;;;;16.70;72.80;;;;;;4954005;28;20023;-81
2022/11/08 13:53:56;;;;;;;;;;;16.80;72.90;;;;;;4954526;28;19966;-81
2022/11/08 13:56:24;;;;;;;;;;;16.70;72.80;;;;;;4952707;28;19957;-81
2022/11/08 13:58:49;;;;;;;;;;;16.80;72.90;;;;;;4951347;28;19918;-81
2022/11/08 14:01:21;;;;;;;;;;;16.80;72.80;;;;;;4948441;29;19933;-81
2022/11/08 14:03:47;;;;;;;;;;;16.80;72.80;;;;;;4942053;29;19914;-81
2022/11/08 14:06:26;;;;;;;;;;;16.80;72.80;;;;;;4954326;28;20422;-81
2022/11/08 14:09:10;;;;;;;;;;;16.80;72.80;;;;;;4951730;29;19915;-82
2022/11/08 14:11:39;;;;;;;;;;;16.90;72.90;;;;;;4953631;28;19918;-82
2022/11/08 14:14:14;;;;;;;;;;;16.90;72.80;;;;;;4955348;28;20555;-81
2022/11/08 14:16:43;;;;;;;;;;;16.90;72.80;;;;;;4955567;29;19918;-82
2022/11/08 14:19:16;;;;;;;;;;;16.90;72.80;;;;;;4954178;28;19965;-82
2022/11/08 14:21:46;;;;;;;;;;;16.90;72.80;;;;;;4948082;29;20269;-82
2022/11/08 14:24:15;;;;;;;;;;;17.00;72.80;;;;;;4955086;29;20005;-81
2022/11/08 14:26:45;;;;;;;;;;;16.90;72.70;;;;;;4955495;28;20356;-81
2022/11/08 14:29:15;;;;;;;;;;;17.00;72.70;;;;;;4955359;28;20466;-82
2022/11/08 14:31:40;;;;;;;;;;;17.00;72.70;;;;;;4951897;28;19954;-82
2022/11/08 14:34:25;;;;;;;;;;;17.00;72.70;;;;;;4951421;29;19993;-82
2022/11/08 14:36:51;;;;;;;;;;;17.00;72.70;;;;;;4952908;29;20355;-81
2022/11/08 14:39:17;;;;;;;;;;;17.00;72.70;;;;;;4938732;29;20095;-80
2022/11/08 14:41:47;;;;;;;;;;;17.00;72.70;;;;;;4954275;28;20426;-82
2022/11/08 14:44:14;;;;;;;;;;;17.10;72.80;;;;;;4954643;28;20352;-82
2022/11/08 14:46:39;;;;;;;;;;;17.10;72.70;;;;;;4954242;29;19910;-83
2022/11/08 14:49:08;;;;;;;;;;;17.10;72.70;;;;;;4937851;29;19921;-79
2022/11/08 14:51:34;;;;;;;;;;;17.10;72.70;;;;;;4954288;28;19926;-80